createdAt,value
2022-10-28T00:03:22.200Z,10.37
2022-10-28T00:06:32.431Z,10.23
2022-10-28T00:09:40.846Z,10.23
2022-10-28T00:12:49.116Z,10.43
2022-10-28T00:18:19.759Z,10.56
2022-10-28T00:21:31.297Z,10.73
2022-10-28T00:24:39.575Z,10.83
2022-10-28T00:27:47.868Z,9.99
2022-10-28T00:33:21.213Z,10.35
2022-10-28T00:36:31.734Z,10.50
2022-10-28T00:39:54.687Z,10.44
2022-10-28T00:42:57.885Z,10.34
2022-10-28T00:46:01.016Z,10.39
2022-10-28T00:49:12.094Z,10.37
2022-10-28T00:52:21.153Z,10.36
2022-10-28T00:55:25.432Z,10.32
2022-10-28T00:58:29.033Z,10.45
2022-10-28T01:01:32.328Z,10.44
2022-10-28T01:04:43.498Z,10.47
2022-10-28T01:07:46.737Z,10.42
2022-10-28T01:11:10.158Z,10.43
2022-10-28T01:14:21.393Z,10.21
2022-10-28T01:17:50.273Z,10.93
2022-10-28T01:21:34.653Z,10.90
2022-10-28T01:24:55.608Z,10.47
2022-10-28T01:28:13.029Z,10.39
2022-10-28T01:31:31.391Z,10.41
2022-10-28T01:34:42.294Z,10.31
2022-10-28T01:37:55.231Z,10.41
2022-10-28T01:41:09.187Z,10.22
2022-10-28T01:44:23.105Z,10.16
2022-10-28T01:47:31.481Z,10.05
2022-10-28T01:50:40.746Z,10.13
2022-10-28T01:53:47.749Z,10.36
2022-10-28T01:56:54.358Z,10.72
2022-10-28T01:59:58.836Z,10.49
2022-10-28T02:03:04.126Z,10.56
2022-10-28T02:06:09.364Z,10.72
2022-10-28T02:09:26.488Z,10.73
2022-10-28T02:12:32.555Z,10.36
2022-10-28T02:15:44.659Z,10.27
2022-10-28T02:18:58.477Z,10.06
2022-10-28T02:22:14.902Z,10.10
2022-10-28T02:25:22.158Z,10.17
2022-10-28T02:28:32.245Z,10.20
2022-10-28T02:31:38.972Z,10.24
2022-10-28T02:34:47.188Z,10.13
2022-10-28T02:37:53.452Z,10.12
2022-10-28T02:41:02.306Z,10.26
2022-10-28T02:44:10.473Z,10.32
2022-10-28T02:47:19.398Z,9.87
2022-10-28T02:50:31.285Z,10.04
2022-10-28T02:53:42.688Z,10.12
2022-10-28T02:56:52.580Z,10.13
2022-10-28T02:59:57.629Z,10.22
2022-10-28T03:03:00.912Z,9.92
2022-10-28T03:06:05.624Z,9.90
2022-10-28T03:09:08.771Z,9.82
2022-10-28T03:12:12.269Z,9.44
2022-10-28T03:15:15.698Z,9.85
2022-10-28T03:18:18.893Z,9.88
2022-10-28T03:21:23.527Z,9.93
2022-10-28T03:24:26.587Z,10.01
2022-10-28T03:27:29.706Z,10.26
2022-10-28T03:34:21.800Z,9.97
2022-10-28T03:37:25.029Z,10.25
2022-10-28T03:40:28.204Z,10.30
2022-10-28T03:43:31.843Z,10.33
2022-10-28T03:46:36.141Z,10.38
2022-10-28T03:49:41.061Z,10.08
2022-10-28T03:52:45.173Z,9.97
2022-10-28T03:55:53.309Z,9.88
2022-10-28T03:58:56.816Z,10.12
2022-10-28T04:02:00.226Z,10.06
2022-10-28T04:05:05.258Z,10.33
2022-10-28T04:08:08.416Z,10.37
2022-10-28T04:11:11.691Z,10.44
2022-10-28T04:14:15.109Z,10.24
2022-10-28T04:17:18.271Z,10.20
2022-10-28T04:20:23.294Z,9.99
2022-10-28T04:23:26.442Z,9.99
2022-10-28T04:26:31.773Z,10.04
2022-10-28T04:29:35.030Z,9.79
2022-10-28T04:32:38.157Z,9.95
2022-10-28T04:35:43.688Z,9.65
2022-10-28T04:38:46.832Z,9.89
2022-10-28T04:41:49.958Z,9.88
2022-10-28T04:44:53.121Z,9.66
2022-10-28T04:47:58.402Z,9.61
2022-10-28T04:51:03.312Z,9.59
2022-10-28T04:54:06.790Z,9.65
2022-10-28T04:57:09.982Z,9.70
2022-10-28T05:00:16.066Z,9.61
2022-10-28T05:03:19.143Z,9.60
2022-10-28T05:06:23.623Z,9.58
2022-10-28T05:09:26.772Z,9.60
2022-10-28T05:12:29.877Z,9.58
2022-10-28T05:15:33.008Z,9.53
2022-10-28T05:18:36.225Z,9.50
2022-10-28T05:21:40.812Z,9.48
2022-10-28T05:24:44.052Z,9.35
2022-10-28T05:27:47.265Z,9.46
2022-10-28T05:30:50.436Z,9.62
2022-10-28T05:33:53.616Z,9.74
2022-10-28T05:36:58.065Z,10.01
2022-10-28T05:40:01.242Z,9.85
2022-10-28T05:43:04.663Z,9.94
2022-10-28T05:46:07.836Z,10.06
2022-10-28T05:49:10.987Z,10.13
2022-10-28T05:52:15.444Z,10.05
2022-10-28T05:55:19.549Z,10.08
2022-10-28T05:58:22.692Z,10.20
2022-10-28T06:01:26.175Z,9.88
2022-10-28T06:04:29.633Z,10.34
2022-10-28T06:07:34.815Z,10.28
2022-10-28T06:10:38.031Z,10.50
2022-10-28T06:13:39.716Z,10.37
2022-10-28T06:16:42.853Z,10.43
2022-10-28T06:19:45.971Z,10.39
2022-10-28T06:22:52.441Z,10.47
2022-10-28T06:29:00.940Z,10.39
2022-10-28T06:32:04.593Z,10.75
2022-10-28T06:35:08.209Z,10.80
2022-10-28T06:38:12.742Z,10.88
2022-10-28T06:41:15.971Z,10.98
2022-10-28T06:44:19.064Z,10.84
2022-10-28T06:47:23.736Z,10.87
2022-10-28T06:50:27.805Z,10.75
2022-10-28T06:53:39.626Z,10.85
2022-10-28T06:56:45.186Z,10.86
2022-10-28T06:59:49.850Z,10.84
2022-10-28T07:02:54.005Z,10.86
2022-10-28T07:05:57.432Z,10.93
2022-10-28T07:09:02.014Z,10.85
2022-10-28T07:12:05.686Z,10.99
2022-10-28T07:15:10.586Z,10.94
2022-10-28T07:18:13.717Z,10.96
2022-10-28T07:21:18.311Z,11.03
2022-10-28T07:24:22.826Z,11.06
2022-10-28T07:27:26.266Z,11.22
2022-10-28T07:30:30.528Z,11.35
2022-10-28T07:33:33.884Z,11.56
2022-10-28T07:36:37.062Z,11.57
2022-10-28T07:39:41.677Z,11.63
2022-10-28T07:42:44.805Z,11.61
2022-10-28T07:45:47.884Z,11.65
2022-10-28T07:48:50.989Z,11.91
2022-10-28T07:52:00.542Z,12.00
2022-10-28T07:55:13.123Z,12.29
2022-10-28T07:58:16.304Z,12.43
2022-10-28T08:01:21.633Z,12.70
2022-10-28T08:04:24.790Z,12.91
2022-10-28T08:07:27.851Z,13.18
2022-10-28T08:10:32.515Z,13.14
2022-10-28T08:13:39.311Z,13.60
2022-10-28T08:16:43.416Z,13.70
2022-10-28T08:19:46.372Z,13.94
2022-10-28T08:22:50.044Z,13.97
2022-10-28T08:25:54.700Z,13.58
2022-10-28T08:28:58.219Z,13.96
2022-10-28T08:32:01.342Z,13.87
2022-10-28T08:35:04.588Z,13.94
2022-10-28T08:38:07.693Z,13.75
2022-10-28T08:41:25.579Z,13.82
2022-10-28T08:44:58.938Z,13.98
2022-10-28T08:48:15.752Z,14.26
2022-10-28T08:51:23.547Z,14.00
2022-10-28T08:54:31.416Z,13.95
2022-10-28T08:57:39.969Z,14.50
2022-10-28T09:00:47.980Z,14.59
2022-10-28T09:03:54.200Z,14.48
2022-10-28T09:06:57.482Z,14.62
2022-10-28T09:10:00.776Z,14.83
2022-10-28T09:13:14.832Z,14.98
2022-10-28T09:16:27.522Z,15.06
2022-10-28T09:19:41.837Z,15.32
2022-10-28T09:22:54.626Z,15.56
2022-10-28T09:26:13.994Z,15.50
2022-10-28T09:29:38.116Z,15.97
2022-10-28T09:34:31.482Z,16.11
2022-10-28T09:37:39.254Z,15.89
2022-10-28T09:40:48.001Z,15.80
2022-10-28T09:43:54.484Z,16.26
2022-10-28T09:47:01.715Z,16.46
2022-10-28T09:50:15.289Z,16.70
2022-10-28T09:53:24.354Z,16.54
2022-10-28T09:56:28.961Z,16.88
2022-10-28T09:59:32.940Z,17.29
2022-10-28T10:02:40.375Z,16.88
2022-10-28T10:05:50.024Z,16.92
2022-10-28T10:08:55.598Z,17.35
2022-10-28T10:12:03.407Z,17.69
2022-10-28T10:15:08.094Z,17.82
2022-10-28T10:18:17.370Z,17.41
2022-10-28T10:21:42.229Z,17.38
2022-10-28T10:24:46.426Z,17.79
2022-10-28T10:27:53.035Z,17.39
2022-10-28T10:30:58.716Z,17.74
2022-10-28T10:34:01.947Z,17.77
2022-10-28T10:37:06.513Z,18.25
2022-10-28T10:40:21.459Z,18.48
2022-10-28T10:43:30.885Z,18.78
2022-10-28T10:46:34.208Z,19.12
2022-10-28T10:49:37.931Z,18.91
2022-10-28T10:52:49.895Z,19.16
2022-10-28T10:55:58.250Z,19.10
2022-10-28T10:59:06.742Z,19.25
2022-10-28T11:02:24.464Z,19.34
2022-10-28T11:05:35.785Z,19.27
2022-10-28T11:08:45.000Z,19.75
2022-10-28T11:11:48.368Z,20.03
2022-10-28T11:14:57.071Z,19.56
2022-10-28T11:18:02.974Z,19.73
2022-10-28T11:21:09.767Z,19.77
2022-10-28T11:24:33.171Z,20.00
2022-10-28T11:27:55.333Z,20.06
2022-10-28T11:31:17.247Z,20.01
2022-10-28T11:34:34.163Z,19.92
2022-10-28T11:37:50.966Z,20.06
2022-10-28T11:41:09.839Z,19.93
2022-10-28T11:44:28.258Z,20.14
2022-10-28T11:47:42.774Z,20.17
2022-10-28T11:51:09.943Z,20.33
2022-10-28T11:54:27.100Z,20.40
2022-10-28T11:57:44.604Z,20.70
2022-10-28T12:01:01.642Z,20.83
2022-10-28T12:04:30.174Z,20.68
2022-10-28T12:07:55.168Z,20.71
2022-10-28T12:11:13.991Z,20.63
2022-10-28T12:14:23.828Z,20.63
2022-10-28T12:17:35.102Z,20.79
2022-10-28T12:20:43.838Z,20.83
2022-10-28T12:23:49.141Z,20.70
2022-10-28T12:26:57.218Z,20.54
2022-10-28T12:30:08.645Z,20.37
2022-10-28T12:33:16.498Z,20.17
2022-10-28T12:36:25.552Z,20.89
2022-10-28T12:39:32.244Z,20.69
2022-10-28T12:42:42.121Z,20.66
2022-10-28T12:45:49.929Z,20.68
2022-10-28T12:48:59.135Z,20.60
2022-10-28T12:52:09.136Z,20.34
2022-10-28T12:55:21.750Z,20.46
2022-10-28T12:58:30.982Z,20.24
2022-10-28T13:01:36.456Z,20.42
2022-10-28T13:04:40.371Z,20.50
2022-10-28T13:08:06.494Z,20.49
2022-10-28T13:11:47.939Z,20.08
2022-10-28T13:15:06.453Z,19.94
2022-10-28T13:18:47.751Z,20.15
2022-10-28T13:22:11.843Z,20.28
2022-10-28T13:25:30.088Z,20.67
2022-10-28T13:28:36.693Z,20.46
2022-10-28T13:31:42.441Z,20.32
2022-10-28T13:34:46.975Z,20.31
2022-10-28T13:37:53.065Z,20.33
2022-10-28T13:41:30.305Z,20.41
2022-10-28T13:44:48.766Z,20.30
2022-10-28T13:47:51.981Z,20.40
2022-10-28T13:51:30.429Z,20.56
2022-10-28T13:54:52.656Z,20.48
2022-10-28T13:58:01.723Z,20.49
2022-10-28T14:01:38.144Z,20.12
2022-10-28T14:04:43.882Z,20.17
2022-10-28T14:07:56.442Z,20.40
2022-10-28T14:11:04.996Z,20.20
2022-10-28T14:14:08.205Z,19.98
2022-10-28T14:17:22.005Z,20.00
2022-10-28T14:20:36.556Z,19.95
2022-10-28T14:24:09.815Z,19.96
2022-10-28T14:27:51.825Z,19.59
2022-10-28T14:31:20.953Z,19.70
2022-10-28T14:34:46.986Z,19.43
2022-10-28T14:38:36.080Z,19.56
2022-10-28T14:41:58.400Z,19.47
2022-10-28T14:45:19.851Z,19.44
2022-10-28T14:48:44.956Z,19.37
2022-10-28T14:51:49.072Z,19.05
2022-10-28T14:54:55.471Z,19.05
2022-10-28T14:58:21.434Z,19.13
2022-10-28T15:01:29.402Z,18.91
2022-10-28T15:04:32.658Z,18.85
2022-10-28T15:07:38.265Z,18.60
2022-10-28T15:10:46.364Z,18.62
2022-10-28T15:13:53.629Z,18.58
2022-10-28T15:16:58.050Z,17.93
2022-10-28T15:20:02.029Z,17.81
2022-10-28T15:23:17.080Z,17.63
2022-10-28T15:26:20.807Z,17.55
2022-10-28T15:29:25.791Z,17.49
2022-10-28T15:34:23.051Z,17.63
2022-10-28T15:37:28.710Z,17.56
2022-10-28T15:40:33.889Z,17.35
2022-10-28T15:43:38.298Z,17.14
2022-10-28T15:46:41.610Z,17.18
2022-10-28T15:50:00.402Z,17.05
2022-10-28T15:53:39.172Z,17.42
2022-10-28T15:56:55.787Z,17.64
2022-10-28T16:00:21.823Z,17.42
2022-10-28T16:03:27.328Z,16.83
2022-10-28T16:06:33.803Z,17.03
2022-10-28T16:09:42.647Z,17.23
2022-10-28T16:12:46.611Z,17.04
2022-10-28T16:15:55.212Z,17.43
2022-10-28T16:19:03.592Z,17.25
2022-10-28T16:22:11.345Z,17.09
2022-10-28T16:25:15.480Z,17.12
2022-10-28T16:28:23.270Z,17.08
2022-10-28T16:31:28.977Z,16.94
2022-10-28T16:34:32.315Z,17.01
2022-10-28T16:37:45.310Z,16.60
2022-10-28T16:40:52.022Z,16.77
2022-10-28T16:43:55.956Z,16.76
2022-10-28T16:46:59.175Z,16.58
2022-10-28T16:50:02.508Z,16.71
2022-10-28T16:53:07.017Z,16.77
2022-10-28T16:56:13.757Z,16.83
2022-10-28T16:59:19.399Z,16.80
2022-10-28T17:02:26.748Z,16.98
2022-10-28T17:05:30.130Z,16.93
2022-10-28T17:09:01.208Z,16.99
2022-10-28T17:11:57.964Z,16.88
2022-10-28T17:15:01.080Z,16.95
2022-10-28T17:18:04.376Z,17.01
2022-10-28T17:21:07.646Z,16.96
2022-10-28T17:24:12.228Z,16.96
2022-10-28T17:27:15.541Z,16.98
2022-10-28T17:30:20.272Z,16.97
2022-10-28T17:33:23.733Z,16.95
2022-10-28T17:36:26.811Z,16.89
2022-10-28T17:39:31.559Z,16.79
2022-10-28T17:42:34.750Z,16.89
2022-10-28T17:45:37.923Z,16.94
2022-10-28T17:48:41.179Z,16.91
2022-10-28T17:51:44.764Z,16.63
2022-10-28T17:54:49.137Z,16.60
2022-10-28T17:57:52.684Z,16.68
2022-10-28T18:00:59.874Z,16.55
2022-10-28T18:04:04.618Z,16.61
2022-10-28T18:07:07.954Z,16.54
2022-10-28T18:10:13.616Z,16.49
2022-10-28T18:13:17.303Z,16.54
2022-10-28T18:16:22.545Z,16.61
2022-10-28T18:19:26.264Z,16.48
2022-10-28T18:22:29.801Z,16.26
2022-10-28T18:25:34.947Z,16.28
2022-10-28T18:28:41.743Z,16.15
2022-10-28T18:31:45.487Z,15.98
2022-10-28T18:34:48.854Z,15.79
2022-10-28T18:37:52.360Z,15.75
2022-10-28T18:40:58.137Z,15.71
2022-10-28T18:44:04.122Z,15.65
2022-10-28T18:47:08.157Z,15.52
2022-10-28T18:50:11.237Z,14.70
2022-10-28T18:53:14.713Z,15.25
2022-10-28T18:56:21.162Z,15.14
2022-10-28T18:59:24.436Z,15.14
2022-10-28T19:02:28.662Z,15.09
2022-10-28T19:05:33.005Z,15.09
2022-10-28T19:08:36.634Z,15.27
2022-10-28T19:11:41.594Z,15.21
2022-10-28T19:14:44.830Z,15.22
2022-10-28T19:17:48.184Z,15.21
2022-10-28T19:20:56.931Z,15.09
2022-10-28T19:24:00.785Z,15.08
2022-10-28T19:27:05.769Z,15.04
2022-10-28T19:30:13.387Z,15.19
2022-10-28T19:33:17.560Z,15.24
2022-10-28T19:36:22.521Z,15.19
2022-10-28T19:39:26.141Z,15.26
2022-10-28T19:42:30.882Z,15.22
2022-10-28T19:45:34.223Z,15.26
2022-10-28T19:48:38.112Z,15.22
2022-10-28T19:51:42.252Z,15.23
2022-10-28T19:54:45.636Z,15.44
2022-10-28T19:57:52.797Z,15.56
2022-10-28T20:01:00.720Z,15.56
2022-10-28T20:04:04.127Z,15.50
2022-10-28T20:07:07.306Z,15.44
2022-10-28T20:10:10.975Z,15.53
2022-10-28T20:13:15.543Z,15.53
2022-10-28T20:16:18.912Z,15.53
2022-10-28T20:19:22.285Z,15.65
2022-10-28T20:22:25.466Z,15.55
2022-10-28T20:25:38.534Z,15.47
2022-10-28T20:28:53.117Z,15.07
2022-10-28T20:32:06.541Z,15.49
2022-10-28T20:35:19.924Z,15.40
2022-10-28T20:38:33.222Z,15.21
2022-10-28T20:41:47.968Z,15.08
2022-10-28T20:48:22.370Z,14.95
2022-10-28T20:51:27.337Z,14.92
2022-10-28T20:54:30.493Z,14.79
2022-10-28T20:57:33.799Z,14.65
2022-10-28T21:00:36.923Z,14.48
2022-10-28T21:03:41.722Z,14.38
2022-10-28T21:06:45.060Z,14.27
2022-10-28T21:09:49.444Z,14.17
2022-10-28T21:12:52.658Z,13.99
2022-10-28T21:15:57.679Z,13.90
2022-10-28T21:19:02.833Z,13.77
2022-10-28T21:22:05.913Z,13.77
2022-10-28T21:25:09.889Z,13.58
2022-10-28T21:28:13.179Z,13.49
2022-10-28T21:34:21.155Z,13.22
2022-10-28T21:37:25.131Z,13.21
2022-10-28T21:40:28.183Z,13.20
2022-10-28T21:43:32.428Z,13.14
2022-10-28T21:46:35.755Z,13.12
2022-10-28T21:49:40.258Z,13.10
2022-10-28T21:52:43.336Z,13.29
2022-10-28T21:55:48.338Z,13.28
2022-10-28T21:58:52.257Z,13.21
2022-10-28T22:01:55.699Z,13.14
2022-10-28T22:05:00.453Z,13.03
2022-10-28T22:08:05.071Z,13.07
2022-10-28T22:11:12.630Z,12.97
2022-10-28T22:14:16.138Z,12.86
2022-10-28T22:17:19.216Z,12.70
2022-10-28T22:23:27.442Z,12.71
2022-10-28T22:26:33.301Z,12.67
2022-10-28T22:29:36.779Z,12.66
2022-10-28T22:32:40.443Z,12.64
2022-10-28T22:35:45.370Z,12.60
2022-10-28T22:38:49.403Z,12.54
2022-10-28T22:41:52.574Z,12.49
2022-10-28T22:44:55.999Z,12.52
2022-10-28T22:47:59.279Z,12.48
2022-10-28T22:51:05.674Z,12.54
2022-10-28T22:54:09.028Z,12.59
2022-10-28T22:57:12.432Z,12.55
2022-10-28T23:00:16.521Z,12.66
2022-10-28T23:03:19.971Z,12.45
2022-10-28T23:06:44.654Z,12.60
2022-10-28T23:09:48.435Z,12.72
2022-10-28T23:12:57.534Z,12.72
2022-10-28T23:16:05.031Z,12.69
2022-10-28T23:19:08.749Z,12.75
2022-10-28T23:22:14.375Z,12.64
2022-10-28T23:25:18.480Z,12.78
2022-10-28T23:28:22.306Z,12.88
2022-10-28T23:31:27.825Z,12.79
2022-10-28T23:34:32.190Z,12.65
2022-10-28T23:37:37.286Z,12.63
2022-10-28T23:40:41.002Z,12.56
2022-10-28T23:43:45.102Z,12.42
2022-10-28T23:46:48.647Z,12.38
2022-10-28T23:49:52.977Z,12.47
2022-10-28T23:52:58.614Z,12.37
2022-10-28T23:56:05.375Z,12.41
2022-10-28T23:59:09.580Z,12.31
